createdAt,value
2018-09-19T00:00:07.936Z,10.63
2018-09-19T00:02:36.136Z,10.93
2018-09-19T00:05:04.303Z,11.73
2018-09-19T00:07:32.459Z,11.93
2018-09-19T00:10:00.706Z,10.53
2018-09-19T00:12:29.095Z,9.30
2018-09-19T00:14:57.372Z,10.17
2018-09-19T00:17:25.645Z,10.10
2018-09-19T00:19:53.960Z,10.17
2018-09-19T00:22:22.097Z,8.80
2018-09-19T00:24:50.309Z,11.57
2018-09-19T00:27:18.482Z,9.97
2018-09-19T00:29:46.623Z,9.60
2018-09-19T00:32:14.818Z,10.17
2018-09-19T00:34:43.017Z,8.90
2018-09-19T00:37:11.254Z,9.07
2018-09-19T00:39:39.466Z,9.00
2018-09-19T00:42:07.834Z,9.40
2018-09-19T00:44:36.083Z,8.70
2018-09-19T00:47:04.252Z,9.20
2018-09-19T00:49:32.467Z,9.07
2018-09-19T00:52:00.666Z,8.63
2018-09-19T00:54:29.096Z,9.07
2018-09-19T00:56:57.295Z,9.43
2018-09-19T00:59:25.439Z,9.57
2018-09-19T01:01:53.723Z,8.97
2018-09-19T01:04:21.900Z,8.77
2018-09-19T01:06:50.355Z,9.43
2018-09-19T01:09:18.727Z,9.73
2018-09-19T01:11:46.842Z,8.53
2018-09-19T01:14:15.230Z,9.23
2018-09-19T01:16:43.423Z,8.07
2018-09-19T01:19:11.624Z,8.60
2018-09-19T01:21:39.809Z,8.23
2018-09-19T01:24:07.982Z,8.63
2018-09-19T01:26:36.216Z,8.90
2018-09-19T01:29:04.407Z,7.93
2018-09-19T01:31:39.428Z,6.50
2018-09-19T01:34:07.675Z,6.97
2018-09-19T01:36:35.848Z,6.47
2018-09-19T01:39:05.039Z,6.23
2018-09-19T01:41:33.198Z,6.47
2018-09-19T01:44:01.382Z,5.77
2018-09-19T01:46:30.137Z,5.90
2018-09-19T01:48:58.320Z,6.00
2018-09-19T01:51:26.440Z,6.00
2018-09-19T01:53:54.777Z,6.30
2018-09-19T01:56:22.943Z,6.30
2018-09-19T01:58:51.118Z,6.33
2018-09-19T02:01:19.326Z,5.50
2018-09-19T02:03:54.149Z,6.67
2018-09-19T02:06:22.295Z,5.97
2018-09-19T02:08:50.619Z,6.07
2018-09-19T02:11:18.861Z,6.00
2018-09-19T02:13:47.075Z,5.93
2018-09-19T02:16:15.543Z,6.80
2018-09-19T02:18:43.702Z,7.03
2018-09-19T02:21:12.463Z,6.43
2018-09-19T02:23:40.664Z,5.87
2018-09-19T02:26:08.869Z,6.40
2018-09-19T02:28:37.185Z,6.73
2018-09-19T02:31:05.415Z,6.63
2018-09-19T02:33:33.599Z,6.60
2018-09-19T02:36:01.780Z,6.93
2018-09-19T02:38:30.255Z,6.80
2018-09-19T02:40:59.204Z,6.27
2018-09-19T02:43:27.469Z,6.10
2018-09-19T02:45:55.777Z,6.53
2018-09-19T02:48:23.998Z,7.00
2018-09-19T02:50:52.189Z,7.30
2018-09-19T02:53:20.508Z,7.07
2018-09-19T02:55:48.747Z,6.70
2018-09-19T02:58:16.924Z,7.03
2018-09-19T03:00:45.253Z,6.13
2018-09-19T03:03:13.443Z,7.40
2018-09-19T03:05:41.707Z,6.93
2018-09-19T03:08:12.997Z,7.20
2018-09-19T03:10:41.180Z,7.07
2018-09-19T03:13:09.341Z,6.83
2018-09-19T03:15:37.580Z,6.87
2018-09-19T03:18:05.855Z,6.63
2018-09-19T03:20:34.133Z,6.67
2018-09-19T03:23:02.343Z,6.63
2018-09-19T03:25:30.533Z,6.60
2018-09-19T03:27:58.880Z,6.83
2018-09-19T03:30:27.103Z,7.07
2018-09-19T03:32:55.300Z,7.70
2018-09-19T03:35:23.668Z,6.87
2018-09-19T03:37:52.059Z,6.70
2018-09-19T03:40:20.301Z,8.23
2018-09-19T03:42:48.487Z,6.70
2018-09-19T03:45:16.683Z,6.90
2018-09-19T03:47:44.925Z,7.53
2018-09-19T03:50:13.208Z,6.67
2018-09-19T03:52:43.064Z,7.43
2018-09-19T03:55:11.219Z,8.17
2018-09-19T03:57:39.415Z,7.27
2018-09-19T04:00:07.617Z,7.73
2018-09-19T04:02:35.955Z,8.87
2018-09-19T04:05:04.103Z,8.27
2018-09-19T04:07:32.276Z,7.50
2018-09-19T04:10:00.444Z,8.30
2018-09-19T04:12:28.597Z,8.10
2018-09-19T04:14:56.825Z,8.80
2018-09-19T04:17:25.071Z,8.27
2018-09-19T04:19:53.236Z,7.93
2018-09-19T04:22:21.420Z,9.80
2018-09-19T04:24:49.668Z,8.23
2018-09-19T04:27:17.916Z,9.27
2018-09-19T04:29:46.110Z,8.93
2018-09-19T04:32:14.360Z,8.80
2018-09-19T04:34:42.466Z,9.33
2018-09-19T04:37:10.906Z,9.47
2018-09-19T04:39:39.061Z,9.40
2018-09-19T04:42:07.601Z,10.33
2018-09-19T04:44:35.775Z,9.90
2018-09-19T04:47:03.886Z,10.87
2018-09-19T04:49:32.150Z,9.70
2018-09-19T04:52:00.399Z,11.50
2018-09-19T04:54:33.693Z,10.90
2018-09-19T04:57:01.890Z,10.23
2018-09-19T04:59:30.171Z,9.63
2018-09-19T05:01:58.407Z,9.23
2018-09-19T05:04:27.311Z,10.40
2018-09-19T05:06:55.584Z,9.17
2018-09-19T05:09:24.210Z,8.93
2018-09-19T05:11:52.447Z,8.50
2018-09-19T05:14:20.694Z,10.30
2018-09-19T05:16:49.963Z,9.87
2018-09-19T05:19:18.332Z,11.70
2018-09-19T05:21:46.543Z,10.60
2018-09-19T05:24:14.801Z,11.27
2018-09-19T05:26:42.996Z,11.53
2018-09-19T05:29:11.269Z,10.67
2018-09-19T05:31:39.584Z,48.93
2018-09-19T05:34:07.741Z,9.97
2018-09-19T05:36:36.063Z,10.77
2018-09-19T05:39:05.586Z,10.63
2018-09-19T05:41:33.842Z,12.43
2018-09-19T05:44:02.089Z,12.43
2018-09-19T05:46:30.359Z,11.67
2018-09-19T05:48:58.673Z,12.73
2018-09-19T05:51:26.981Z,12.63
2018-09-19T05:53:55.144Z,13.07
2018-09-19T05:56:23.301Z,12.27
2018-09-19T05:58:51.688Z,12.33
2018-09-19T06:01:19.881Z,12.67
2018-09-19T06:03:48.157Z,12.10
2018-09-19T06:06:16.369Z,11.60
2018-09-19T06:08:45.633Z,11.60
2018-09-19T06:11:22.811Z,11.20
2018-09-19T06:13:51.767Z,10.50
2018-09-19T06:16:20.042Z,11.50
2018-09-19T06:18:48.345Z,10.73
2018-09-19T06:21:16.517Z,9.83
2018-09-19T06:23:44.754Z,11.77
2018-09-19T06:26:12.999Z,9.23
2018-09-19T06:28:41.244Z,9.43
2018-09-19T06:31:09.471Z,9.53
2018-09-19T06:33:37.691Z,9.40
2018-09-19T06:36:06.019Z,10.53
2018-09-19T06:38:34.226Z,10.07
2018-09-19T06:41:02.620Z,10.97
2018-09-19T06:43:30.823Z,10.43
2018-09-19T06:45:58.990Z,10.33
2018-09-19T06:48:27.259Z,11.50
2018-09-19T06:50:55.431Z,11.43
2018-09-19T06:53:23.675Z,11.37
2018-09-19T06:55:52.093Z,10.33
2018-09-19T06:58:20.674Z,9.23
2018-09-19T07:00:48.814Z,9.83
2018-09-19T07:03:17.227Z,9.27
2018-09-19T07:05:45.446Z,9.23
2018-09-19T07:08:13.656Z,9.53
2018-09-19T07:10:41.867Z,10.90
2018-09-19T07:13:10.060Z,9.50
2018-09-19T07:15:38.242Z,10.60
2018-09-19T07:18:06.383Z,9.33
2018-09-19T07:20:34.619Z,10.63
2018-09-19T07:23:02.791Z,10.97
2018-09-19T07:25:31.136Z,10.73
2018-09-19T07:27:59.393Z,10.00
2018-09-19T07:30:27.614Z,9.50
2018-09-19T07:32:55.817Z,8.73
2018-09-19T07:35:24.393Z,8.50
2018-09-19T07:37:52.692Z,10.60
2018-09-19T07:40:20.928Z,10.47
2018-09-19T07:42:49.036Z,8.80
2018-09-19T07:45:17.300Z,11.23
2018-09-19T07:47:46.183Z,10.67
2018-09-19T07:50:14.379Z,9.17
2018-09-19T07:52:42.621Z,9.27
2018-09-19T07:55:11.089Z,10.37
2018-09-19T07:57:39.199Z,11.10
2018-09-19T08:00:07.489Z,15.07
2018-09-19T08:02:35.769Z,9.47
2018-09-19T08:05:04.029Z,11.30
2018-09-19T08:07:32.235Z,9.80
2018-09-19T08:10:00.730Z,7.73
2018-09-19T08:12:28.926Z,10.13
2018-09-19T08:14:57.205Z,8.50
2018-09-19T08:17:25.438Z,11.67
2018-09-19T08:19:53.586Z,7.50
2018-09-19T08:22:21.746Z,7.57
2018-09-19T08:24:50.140Z,8.50
2018-09-19T08:27:18.319Z,9.87
2018-09-19T08:29:46.499Z,9.63
2018-09-19T08:32:14.659Z,8.47
2018-09-19T08:34:42.983Z,7.53
2018-09-19T08:37:11.188Z,7.50
2018-09-19T08:39:39.435Z,7.90
2018-09-19T08:42:07.736Z,10.70
2018-09-19T08:44:35.940Z,9.03
2018-09-19T08:47:04.189Z,6.20
2018-09-19T08:49:33.037Z,7.37
2018-09-19T08:52:01.875Z,7.00
2018-09-19T08:54:30.180Z,8.20
2018-09-19T08:56:58.533Z,7.03
2018-09-19T08:59:26.721Z,10.97
2018-09-19T09:01:54.900Z,6.57
2018-09-19T09:04:23.069Z,9.60
2018-09-19T09:06:51.282Z,6.73
2018-09-19T09:09:19.466Z,6.47
2018-09-19T09:11:47.639Z,5.40
2018-09-19T09:14:15.938Z,5.87
2018-09-19T09:16:44.291Z,6.20
2018-09-19T09:19:12.568Z,5.73
2018-09-19T09:21:40.745Z,5.30
2018-09-19T09:24:09.023Z,5.73
2018-09-19T09:26:37.272Z,6.77
2018-09-19T09:29:05.485Z,6.40
2018-09-19T09:31:33.860Z,6.37
2018-09-19T09:34:02.648Z,5.70
2018-09-19T09:36:30.873Z,6.73
2018-09-19T09:39:00.234Z,5.37
2018-09-19T09:41:28.448Z,5.50
2018-09-19T09:43:56.694Z,5.70
2018-09-19T09:46:24.901Z,5.97
2018-09-19T09:48:53.089Z,6.27
2018-09-19T09:51:21.512Z,6.37
2018-09-19T09:53:49.738Z,5.33
2018-09-19T09:56:17.976Z,5.63
2018-09-19T09:58:47.524Z,5.93
2018-09-19T10:01:16.516Z,5.57
2018-09-19T10:03:44.851Z,5.07
2018-09-19T10:06:13.135Z,5.30
2018-09-19T10:08:41.343Z,5.13
2018-09-19T10:11:09.503Z,5.73
2018-09-19T10:13:38.289Z,5.80
2018-09-19T10:16:06.646Z,5.13
2018-09-19T10:18:35.027Z,5.43
2018-09-19T10:21:03.229Z,5.60
2018-09-19T10:23:31.472Z,6.17
2018-09-19T10:25:59.668Z,5.47
2018-09-19T10:28:27.861Z,5.87
2018-09-19T10:30:56.156Z,5.43
2018-09-19T10:33:24.457Z,5.70
2018-09-19T10:35:52.688Z,5.57
2018-09-19T10:38:20.853Z,5.77
2018-09-19T10:40:49.037Z,5.03
2018-09-19T10:43:17.340Z,5.97
2018-09-19T10:45:45.557Z,4.87
2018-09-19T10:48:17.826Z,5.20
2018-09-19T10:50:46.772Z,5.30
2018-09-19T10:53:15.100Z,5.77
2018-09-19T10:55:44.148Z,4.90
2018-09-19T10:58:16.190Z,5.50
2018-09-19T11:00:44.598Z,5.67
2018-09-19T11:03:13.055Z,5.87
2018-09-19T11:05:41.424Z,5.83
2018-09-19T11:08:09.632Z,5.97
2018-09-19T11:10:37.911Z,5.57
2018-09-19T11:13:06.233Z,5.43
2018-09-19T11:15:34.636Z,5.97
2018-09-19T11:18:02.794Z,5.60
2018-09-19T11:20:31.566Z,5.57
2018-09-19T11:23:00.124Z,5.50
2018-09-19T11:25:28.344Z,5.93
2018-09-19T11:27:56.572Z,5.40
2018-09-19T11:30:24.886Z,4.77
2018-09-19T11:32:53.085Z,5.27
2018-09-19T11:35:21.278Z,5.63
2018-09-19T11:37:49.462Z,5.40
2018-09-19T11:40:17.870Z,5.00
2018-09-19T11:42:46.259Z,7.43
2018-09-19T11:45:14.590Z,4.77
2018-09-19T11:47:42.920Z,5.67
2018-09-19T11:50:11.152Z,6.17
2018-09-19T11:52:39.272Z,7.07
2018-09-19T11:55:08.051Z,6.80
2018-09-19T11:57:36.268Z,6.80
2018-09-19T12:00:04.725Z,6.27
2018-09-19T12:02:32.974Z,5.93
2018-09-19T12:05:01.169Z,5.60
2018-09-19T12:07:29.638Z,5.60
2018-09-19T12:09:57.914Z,7.50
2018-09-19T12:12:26.354Z,6.37
2018-09-19T12:14:55.296Z,5.33
2018-09-19T12:17:23.612Z,5.93
2018-09-19T12:19:51.975Z,6.23
2018-09-19T12:22:20.110Z,6.70
2018-09-19T12:24:48.343Z,6.87
2018-09-19T12:27:17.144Z,7.30
2018-09-19T12:29:45.422Z,5.83
2018-09-19T12:32:13.613Z,9.10
2018-09-19T12:34:41.911Z,7.60
2018-09-19T12:37:10.089Z,4.77
2018-09-19T12:39:38.341Z,5.30
2018-09-19T12:42:06.704Z,5.60
2018-09-19T12:44:35.137Z,4.80
2018-09-19T12:47:03.451Z,6.07
2018-09-19T12:49:31.836Z,5.50
2018-09-19T12:52:00.492Z,4.93
2018-09-19T12:54:28.734Z,5.40
2018-09-19T12:56:56.962Z,5.40
2018-09-19T12:59:26.287Z,4.83
2018-09-19T13:01:55.102Z,5.00
2018-09-19T13:04:26.802Z,4.90
2018-09-19T13:06:55.254Z,5.40
2018-09-19T13:09:23.515Z,4.57
2018-09-19T13:11:52.029Z,5.13
2018-09-19T13:14:20.178Z,5.17
2018-09-19T13:16:48.388Z,5.27
2018-09-19T13:19:16.629Z,4.77
2018-09-19T13:21:44.838Z,5.67
2018-09-19T13:24:13.934Z,5.20
2018-09-19T13:26:42.174Z,7.13
2018-09-19T13:29:10.703Z,5.03
2018-09-19T13:31:38.893Z,5.90
2018-09-19T13:34:07.259Z,4.73
2018-09-19T13:36:35.428Z,4.63
2018-09-19T13:39:04.228Z,4.90
2018-09-19T13:41:32.441Z,4.30
2018-09-19T13:44:00.871Z,4.70
2018-09-19T13:46:29.199Z,5.20
2018-09-19T13:49:02.111Z,7.73
2018-09-19T13:51:30.508Z,5.27
2018-09-19T13:53:58.747Z,5.30
2018-09-19T13:56:27.052Z,6.07
2018-09-19T13:58:55.378Z,7.10
2018-09-19T14:01:23.736Z,5.43
2018-09-19T14:03:52.067Z,5.07
2018-09-19T14:06:21.188Z,5.10
2018-09-19T14:08:49.608Z,5.90
2018-09-19T14:11:17.806Z,6.27
2018-09-19T14:13:46.080Z,6.13
2018-09-19T14:16:14.370Z,5.63
2018-09-19T14:18:42.741Z,6.30
2018-09-19T14:21:10.924Z,5.07
2018-09-19T14:23:39.185Z,5.30
2018-09-19T14:26:07.616Z,6.67
2018-09-19T14:28:35.834Z,7.90
2018-09-19T14:31:04.056Z,8.13
2018-09-19T14:33:32.498Z,7.90
2018-09-19T14:36:00.800Z,8.23
2018-09-19T14:38:29.105Z,8.20
2018-09-19T14:40:57.389Z,8.53
2018-09-19T14:43:25.833Z,6.93
2018-09-19T14:45:53.991Z,6.33
2018-09-19T14:48:22.330Z,6.90
2018-09-19T14:50:51.721Z,14.40
2018-09-19T14:53:20.115Z,6.77
2018-09-19T14:55:48.563Z,6.50
2018-09-19T14:58:17.063Z,7.57
2018-09-19T15:00:45.317Z,7.00
2018-09-19T15:03:13.577Z,6.43
2018-09-19T15:05:41.893Z,7.90
2018-09-19T15:08:10.287Z,6.90
2018-09-19T15:10:38.501Z,8.30
2018-09-19T15:13:07.232Z,7.63
2018-09-19T15:15:36.267Z,7.50
2018-09-19T15:18:04.642Z,7.33
2018-09-19T15:20:32.988Z,7.83
2018-09-19T15:23:01.286Z,8.37
2018-09-19T15:25:29.681Z,7.13
2018-09-19T15:27:58.005Z,6.90
2018-09-19T15:30:26.181Z,8.27
2018-09-19T15:32:54.451Z,9.13
2018-09-19T15:35:22.692Z,8.50
2018-09-19T15:37:52.086Z,6.97
2018-09-19T15:40:20.644Z,7.77
2018-09-19T15:42:48.828Z,8.27
2018-09-19T15:45:31.124Z,8.37
2018-09-19T15:47:59.476Z,7.10
2018-09-19T15:50:27.975Z,9.03
2018-09-19T15:52:57.079Z,8.70
2018-09-19T15:55:25.529Z,7.50
2018-09-19T15:57:54.060Z,7.97
2018-09-19T16:00:22.315Z,9.53
2018-09-19T16:02:50.571Z,8.73
2018-09-19T16:05:18.777Z,8.87
2018-09-19T16:07:47.581Z,9.07
2018-09-19T16:10:15.793Z,8.97
2018-09-19T16:12:43.957Z,9.10
2018-09-19T16:15:12.297Z,10.13
2018-09-19T16:17:40.591Z,8.47
2018-09-19T16:20:08.813Z,9.20
2018-09-19T16:22:37.096Z,8.03
2018-09-19T16:25:05.317Z,9.93
2018-09-19T16:27:34.375Z,9.20
2018-09-19T16:30:03.648Z,10.57
2018-09-19T16:32:31.918Z,10.23
2018-09-19T16:35:00.415Z,12.07
2018-09-19T16:37:32.791Z,10.70
2018-09-19T16:40:01.087Z,10.53
2018-09-19T16:42:29.379Z,10.50
2018-09-19T16:44:57.660Z,9.60
2018-09-19T16:47:26.227Z,9.43
2018-09-19T16:49:55.408Z,8.53
2018-09-19T16:52:23.993Z,9.40
2018-09-19T16:54:53.661Z,11.53
2018-09-19T16:57:22.076Z,10.10
2018-09-19T16:59:50.304Z,10.73
2018-09-19T17:02:19.392Z,9.93
2018-09-19T17:04:47.644Z,13.10
2018-09-19T17:07:15.921Z,10.40
2018-09-19T17:09:44.378Z,9.57
2018-09-19T17:12:12.874Z,10.67
2018-09-19T17:14:41.172Z,10.77
2018-09-19T17:17:09.471Z,10.87
2018-09-19T17:19:38.001Z,10.20
2018-09-19T17:22:06.522Z,9.87
2018-09-19T17:24:34.945Z,12.97
2018-09-19T17:27:03.503Z,9.50
2018-09-19T17:29:31.873Z,9.37
2018-09-19T17:32:00.128Z,9.70
2018-09-19T17:34:28.447Z,11.70
2018-09-19T17:36:56.653Z,10.57
2018-09-19T17:39:24.960Z,11.10
2018-09-19T17:41:53.311Z,12.10
2018-09-19T17:44:21.553Z,11.70
2018-09-19T17:46:49.970Z,10.07
2018-09-19T17:49:18.295Z,11.87
2018-09-19T17:51:46.625Z,11.27
2018-09-19T17:54:14.940Z,11.90
2018-09-19T17:56:43.229Z,13.13
2018-09-19T17:59:11.538Z,11.67
2018-09-19T18:01:39.778Z,12.47
2018-09-19T18:04:08.041Z,12.03
2018-09-19T18:06:36.384Z,12.70
2018-09-19T18:09:05.449Z,12.80
2018-09-19T18:11:33.681Z,11.37
2018-09-19T18:14:01.937Z,11.43
2018-09-19T18:16:30.303Z,11.63
2018-09-19T18:18:59.501Z,11.87
2018-09-19T18:21:27.747Z,11.10
2018-09-19T18:23:56.055Z,12.90
2018-09-19T18:26:24.294Z,10.77
2018-09-19T18:28:52.562Z,13.87
2018-09-19T18:31:20.792Z,10.93
2018-09-19T18:33:49.174Z,10.47
2018-09-19T18:36:17.474Z,9.50
2018-09-19T18:38:45.767Z,10.70
2018-09-19T18:41:14.559Z,12.97
2018-09-19T18:43:42.839Z,13.03
2018-09-19T18:46:11.134Z,12.90
2018-09-19T18:48:39.343Z,10.63
2018-09-19T18:51:08.598Z,12.20
2018-09-19T18:53:36.913Z,10.97
2018-09-19T18:56:05.444Z,12.03
2018-09-19T18:58:33.732Z,12.93
2018-09-19T19:01:01.998Z,10.93
2018-09-19T19:03:30.654Z,11.97
2018-09-19T19:05:58.892Z,12.60
2018-09-19T19:08:27.383Z,12.40
2018-09-19T19:10:55.657Z,14.13
2018-09-19T19:13:23.951Z,13.43
2018-09-19T19:15:52.952Z,12.83
2018-09-19T19:18:21.887Z,9.50
2018-09-19T19:20:50.203Z,12.07
2018-09-19T19:23:19.616Z,12.87
2018-09-19T19:28:15.173Z,11.30
2018-09-19T19:30:43.610Z,12.97
2018-09-19T19:33:12.000Z,14.97
2018-09-19T19:35:40.487Z,13.13
2018-09-19T19:38:08.878Z,10.97
2018-09-19T19:40:37.409Z,12.00
2018-09-19T19:43:05.905Z,13.40
2018-09-19T19:45:34.537Z,11.37
2018-09-19T19:48:02.870Z,11.87
2018-09-19T19:50:31.522Z,13.83
2018-09-19T19:52:59.904Z,11.97
2018-09-19T19:55:28.281Z,11.83
2018-09-19T19:57:57.341Z,11.70
2018-09-19T20:00:25.930Z,11.90
2018-09-19T20:02:54.204Z,11.40
2018-09-19T20:05:22.529Z,11.00
2018-09-19T20:07:50.812Z,10.87
2018-09-19T20:10:19.254Z,17.17
2018-09-19T20:12:47.514Z,11.57
2018-09-19T20:15:16.197Z,11.50
2018-09-19T20:17:44.615Z,11.93
2018-09-19T20:20:12.999Z,10.73
2018-09-19T20:22:41.313Z,11.07
2018-09-19T20:25:09.619Z,12.10
2018-09-19T20:27:38.040Z,10.63
2018-09-19T20:30:07.068Z,13.23
2018-09-19T20:32:35.426Z,11.57
2018-09-19T20:35:03.679Z,11.33
2018-09-19T20:37:31.987Z,11.57
2018-09-19T20:40:00.942Z,11.03
2018-09-19T20:42:29.245Z,10.07
2018-09-19T20:44:58.454Z,12.33
2018-09-19T20:47:26.904Z,9.83
2018-09-19T20:49:55.432Z,11.23
2018-09-19T20:52:23.741Z,10.30
2018-09-19T20:54:52.035Z,10.77
2018-09-19T20:57:20.439Z,17.33
2018-09-19T20:59:49.013Z,10.30
2018-09-19T21:02:17.261Z,10.83
2018-09-19T21:04:45.592Z,10.53
2018-09-19T21:07:13.837Z,10.47
2018-09-19T21:09:42.093Z,11.30
2018-09-19T21:12:10.322Z,10.37
2018-09-19T21:14:38.617Z,11.50
2018-09-19T21:17:06.861Z,10.53
2018-09-19T21:19:35.117Z,10.60
2018-09-19T21:22:03.413Z,11.03
2018-09-19T21:24:31.498Z,10.53
2018-09-19T21:26:59.665Z,11.73
2018-09-19T21:29:27.891Z,10.90
2018-09-19T21:31:56.071Z,11.73
2018-09-19T21:34:24.548Z,16.47
2018-09-19T21:36:53.046Z,11.50
2018-09-19T21:39:21.285Z,10.57
2018-09-19T21:41:49.527Z,12.53
2018-09-19T21:44:17.701Z,11.77
2018-09-19T21:46:45.868Z,10.90
2018-09-19T21:49:14.083Z,9.73
2018-09-19T21:51:42.273Z,8.57
2018-09-19T21:54:10.444Z,8.87
2018-09-19T21:56:38.661Z,8.67
2018-09-19T21:59:06.854Z,7.93
2018-09-19T22:01:41.728Z,8.20
2018-09-19T22:04:10.571Z,7.37
2018-09-19T22:06:39.058Z,8.53
2018-09-19T22:09:11.436Z,8.50
2018-09-19T22:11:46.048Z,7.20
2018-09-19T22:14:14.853Z,8.10
2018-09-19T22:16:42.996Z,8.20
2018-09-19T22:19:11.282Z,7.20
2018-09-19T22:21:39.498Z,6.97
2018-09-19T22:24:07.817Z,7.37
2018-09-19T22:26:36.455Z,6.43
2018-09-19T22:29:04.708Z,7.37
2018-09-19T22:31:33.147Z,7.70
2018-09-19T22:34:01.530Z,13.33
2018-09-19T22:36:29.792Z,7.53
2018-09-19T22:38:57.988Z,9.30
2018-09-19T22:41:26.320Z,7.87
2018-09-19T22:43:54.522Z,7.70
2018-09-19T22:46:23.018Z,6.93
2018-09-19T22:48:51.268Z,7.37
2018-09-19T22:51:19.440Z,7.27
2018-09-19T22:53:47.714Z,7.07
2018-09-19T22:56:15.976Z,7.93
2018-09-19T22:58:44.152Z,7.47
2018-09-19T23:01:12.406Z,6.97
2018-09-19T23:03:40.649Z,7.43
2018-09-19T23:06:09.189Z,7.07
2018-09-19T23:08:37.362Z,6.97
2018-09-19T23:11:05.638Z,6.57
2018-09-19T23:13:33.814Z,6.90
2018-09-19T23:16:02.002Z,7.10
2018-09-19T23:18:30.158Z,7.33
2018-09-19T23:20:58.333Z,7.67
2018-09-19T23:23:26.614Z,7.87
2018-09-19T23:25:54.780Z,6.20
2018-09-19T23:28:22.956Z,6.60
2018-09-19T23:30:51.438Z,7.47
2018-09-19T23:33:20.169Z,6.60
2018-09-19T23:35:48.338Z,6.73
2018-09-19T23:38:16.448Z,6.53
2018-09-19T23:40:44.824Z,7.00
2018-09-19T23:43:13.081Z,9.20
2018-09-19T23:45:41.309Z,7.00
2018-09-19T23:48:10.040Z,6.40
2018-09-19T23:50:38.317Z,6.20
2018-09-19T23:53:06.525Z,6.77
2018-09-19T23:55:34.873Z,6.67
2018-09-19T23:58:03.093Z,5.40
